createdAt,value
2017-06-22T00:01:07.314Z,18.27
2017-06-22T00:03:34.508Z,17.80
2017-06-22T00:06:03.472Z,19.40
2017-06-22T00:08:36.272Z,23.57
2017-06-22T00:11:04.319Z,19.87
2017-06-22T00:13:32.538Z,21.67
2017-06-22T00:16:00.852Z,21.47
2017-06-22T00:18:29.897Z,21.33
2017-06-22T00:20:57.979Z,22.47
2017-06-22T00:23:25.661Z,22.33
2017-06-22T00:25:52.820Z,21.83
2017-06-22T00:28:21.128Z,21.80
2017-06-22T00:30:48.559Z,20.97
2017-06-22T00:33:16.752Z,20.73
2017-06-22T00:35:45.198Z,21.07
2017-06-22T00:38:14.496Z,20.40
2017-06-22T00:40:42.623Z,20.47
2017-06-22T00:43:09.840Z,21.23
2017-06-22T00:45:36.626Z,21.17
2017-06-22T00:48:04.276Z,25.53
2017-06-22T00:50:30.566Z,32.50
2017-06-22T00:52:58.766Z,29.07
2017-06-22T00:55:27.770Z,30.60
2017-06-22T00:57:55.817Z,33.30
2017-06-22T01:00:26.065Z,28.60
2017-06-22T01:02:52.822Z,32.03
2017-06-22T01:05:21.631Z,26.43
2017-06-22T01:07:48.157Z,27.23
2017-06-22T01:10:14.413Z,26.80
2017-06-22T01:12:43.675Z,23.97
2017-06-22T01:15:12.295Z,24.03
2017-06-22T01:17:39.566Z,24.20
2017-06-22T01:20:05.880Z,24.90
2017-06-22T01:22:33.292Z,25.03
2017-06-22T01:24:59.575Z,26.13
2017-06-22T01:27:26.359Z,25.20
2017-06-22T01:29:55.603Z,22.13
2017-06-22T01:32:22.645Z,24.33
2017-06-22T01:37:27.610Z,21.93
2017-06-22T01:40:00.540Z,22.10
2017-06-22T01:42:28.530Z,23.07
2017-06-22T01:44:56.707Z,21.77
2017-06-22T01:47:23.643Z,23.03
2017-06-22T01:49:52.183Z,22.67
2017-06-22T01:52:21.608Z,23.40
2017-06-22T01:54:50.452Z,23.50
2017-06-22T01:57:18.217Z,23.03
2017-06-22T01:59:44.598Z,21.90
2017-06-22T02:02:12.800Z,22.00
2017-06-22T02:04:40.864Z,22.63
2017-06-22T02:07:09.375Z,22.20
2017-06-22T02:09:36.033Z,22.90
2017-06-22T02:12:03.326Z,22.40
2017-06-22T02:14:29.603Z,19.80
2017-06-22T02:16:58.456Z,20.53
2017-06-22T02:19:26.228Z,18.80
2017-06-22T02:21:55.633Z,21.60
2017-06-22T02:24:23.957Z,21.47
2017-06-22T02:26:51.097Z,19.20
2017-06-22T02:29:18.129Z,21.60
2017-06-22T02:31:46.924Z,23.67
2017-06-22T02:34:16.205Z,25.10
2017-06-22T02:36:44.986Z,24.63
2017-06-22T02:39:14.698Z,26.40
2017-06-22T02:41:41.430Z,25.07
2017-06-22T02:44:08.689Z,23.07
2017-06-22T02:46:36.694Z,24.48
2017-06-22T02:49:03.236Z,22.30
2017-06-22T02:51:30.512Z,25.80
2017-06-22T02:53:59.010Z,22.33
2017-06-22T02:56:27.659Z,22.17
2017-06-22T02:58:59.541Z,23.10
2017-06-22T03:01:27.220Z,22.03
2017-06-22T03:03:53.615Z,25.73
2017-06-22T03:06:20.766Z,22.63
2017-06-22T03:08:47.877Z,22.70
2017-06-22T03:11:15.195Z,21.27
2017-06-22T03:13:43.950Z,22.90
2017-06-22T03:16:31.407Z,23.43
2017-06-22T03:19:00.172Z,23.43
2017-06-22T03:21:28.785Z,25.50
2017-06-22T03:23:55.921Z,24.83
2017-06-22T03:26:26.380Z,25.37
2017-06-22T03:28:56.452Z,26.80
2017-06-22T03:31:22.719Z,25.93
2017-06-22T03:33:49.901Z,25.13
2017-06-22T03:36:19.581Z,25.63
2017-06-22T03:38:48.872Z,26.67
2017-06-22T03:41:17.736Z,26.67
2017-06-22T03:43:44.012Z,27.90
2017-06-22T03:46:12.945Z,30.60
2017-06-22T03:48:40.216Z,28.17
2017-06-22T03:51:08.094Z,26.17
2017-06-22T03:53:38.620Z,27.97
2017-06-22T03:56:04.874Z,25.40
2017-06-22T03:58:33.096Z,28.43
2017-06-22T04:01:00.304Z,26.00
2017-06-22T04:03:28.733Z,26.63
2017-06-22T04:05:57.177Z,24.43
2017-06-22T04:08:25.947Z,25.40
2017-06-22T04:10:52.198Z,23.50
2017-06-22T04:13:19.910Z,23.87
2017-06-22T04:15:46.940Z,24.27
2017-06-22T04:18:16.400Z,24.57
2017-06-22T04:20:43.681Z,23.30
2017-06-22T04:23:11.169Z,25.80
2017-06-22T04:25:38.411Z,24.40
2017-06-22T04:28:05.709Z,22.93
2017-06-22T04:30:32.604Z,24.83
2017-06-22T04:33:01.554Z,22.03
2017-06-22T04:35:30.372Z,24.60
2017-06-22T04:37:59.630Z,26.23
2017-06-22T04:40:28.667Z,25.90
2017-06-22T04:42:55.447Z,22.93
2017-06-22T04:45:27.637Z,25.13
2017-06-22T04:47:55.919Z,24.50
2017-06-22T04:50:22.156Z,24.67
2017-06-22T04:52:52.946Z,25.87
2017-06-22T04:55:23.719Z,26.73
2017-06-22T04:57:59.124Z,24.30
2017-06-22T05:00:25.997Z,23.87
2017-06-22T05:02:54.007Z,26.73
2017-06-22T05:05:22.526Z,27.30
2017-06-22T05:07:48.772Z,28.30
2017-06-22T05:10:19.878Z,30.30
2017-06-22T05:12:49.646Z,29.73
2017-06-22T05:15:18.649Z,30.10
2017-06-22T05:17:48.052Z,27.00
2017-06-22T05:20:15.107Z,30.27
2017-06-22T05:22:45.355Z,27.03
2017-06-22T05:25:14.785Z,29.50
2017-06-22T05:27:43.675Z,33.73
2017-06-22T05:30:12.571Z,29.90
2017-06-22T05:32:39.679Z,27.77
2017-06-22T05:35:08.829Z,25.83
2017-06-22T05:37:35.090Z,27.33
2017-06-22T05:40:03.769Z,28.07
2017-06-22T05:42:30.942Z,25.83
2017-06-22T05:44:59.449Z,27.30
2017-06-22T05:47:29.933Z,25.93
2017-06-22T05:49:57.514Z,27.17
2017-06-22T05:52:24.237Z,27.60
2017-06-22T05:54:53.363Z,28.07
2017-06-22T05:57:23.009Z,26.00
2017-06-22T05:59:50.203Z,26.03
2017-06-22T06:02:18.940Z,27.27
2017-06-22T06:04:45.839Z,26.10
2017-06-22T06:07:13.858Z,25.73
2017-06-22T06:09:41.171Z,26.13
2017-06-22T06:12:10.351Z,26.30
2017-06-22T06:14:36.647Z,24.60
2017-06-22T06:17:04.572Z,23.87
2017-06-22T06:19:31.560Z,26.20
2017-06-22T06:22:07.510Z,26.83
2017-06-22T06:24:37.029Z,28.00
2017-06-22T06:27:05.824Z,39.30
2017-06-22T06:29:34.959Z,36.97
2017-06-22T06:32:03.172Z,35.40
2017-06-22T06:34:31.969Z,29.80
2017-06-22T06:36:59.037Z,29.00
2017-06-22T06:39:27.420Z,28.00
2017-06-22T06:41:54.632Z,26.80
2017-06-22T06:44:22.411Z,26.63
2017-06-22T06:46:51.199Z,26.17
2017-06-22T06:49:19.436Z,25.80
2017-06-22T06:51:45.840Z,24.03
2017-06-22T06:54:14.858Z,24.90
2017-06-22T06:56:42.652Z,22.93
2017-06-22T06:59:12.494Z,24.17
2017-06-22T07:01:43.958Z,24.10
2017-06-22T07:04:12.423Z,22.20
2017-06-22T07:06:40.864Z,22.60
2017-06-22T07:09:08.072Z,21.37
2017-06-22T07:11:39.180Z,22.60
2017-06-22T07:14:07.263Z,22.43
2017-06-22T07:16:35.370Z,24.07
2017-06-22T07:19:03.589Z,22.30
2017-06-22T07:21:32.445Z,22.90
2017-06-22T07:24:01.111Z,22.33
2017-06-22T07:26:28.883Z,23.37
2017-06-22T07:28:56.583Z,22.53
2017-06-22T07:31:24.659Z,22.20
2017-06-22T07:33:53.121Z,21.40
2017-06-22T07:36:21.412Z,21.47
2017-06-22T07:38:50.229Z,23.60
2017-06-22T07:41:20.215Z,23.13
2017-06-22T07:43:50.486Z,24.33
2017-06-22T07:46:21.773Z,21.93
2017-06-22T07:48:50.900Z,24.23
2017-06-22T07:51:19.902Z,23.50
2017-06-22T07:53:47.672Z,23.80
2017-06-22T07:56:15.372Z,21.17
2017-06-22T07:58:43.422Z,18.17
2017-06-22T08:01:11.944Z,19.00
2017-06-22T08:03:40.152Z,17.23
2017-06-22T08:06:08.188Z,16.63
2017-06-22T08:08:35.334Z,18.37
2017-06-22T08:11:02.520Z,18.37
2017-06-22T08:13:31.064Z,16.67
2017-06-22T08:15:58.007Z,16.70
2017-06-22T08:18:30.427Z,15.57
2017-06-22T08:20:57.532Z,15.70
2017-06-22T08:23:23.786Z,15.00
2017-06-22T08:25:53.096Z,16.83
2017-06-22T08:28:20.574Z,16.03
2017-06-22T08:30:47.883Z,15.50
2017-06-22T08:33:16.505Z,15.53
2017-06-22T08:35:46.394Z,16.53
2017-06-22T08:38:15.136Z,16.37
2017-06-22T08:40:44.149Z,16.40
2017-06-22T08:43:13.541Z,17.40
2017-06-22T08:45:42.664Z,17.60
2017-06-22T08:48:11.104Z,16.03
2017-06-22T08:50:38.326Z,16.57
2017-06-22T08:53:06.419Z,16.80
2017-06-22T08:55:36.870Z,17.70
2017-06-22T08:58:06.325Z,16.90
2017-06-22T09:00:36.843Z,17.43
2017-06-22T09:03:04.039Z,16.77
2017-06-22T09:05:32.096Z,16.50
2017-06-22T09:07:58.353Z,15.43
2017-06-22T09:10:27.511Z,15.93
2017-06-22T09:12:56.027Z,16.37
2017-06-22T09:15:25.252Z,15.80
2017-06-22T09:17:53.198Z,14.43
2017-06-22T09:20:23.812Z,16.00
2017-06-22T09:22:52.119Z,15.67
2017-06-22T09:25:21.648Z,16.57
2017-06-22T09:27:49.436Z,15.97
2017-06-22T09:30:16.197Z,14.70
2017-06-22T09:32:46.089Z,14.90
2017-06-22T09:35:14.020Z,15.37
2017-06-22T09:37:43.312Z,16.33
2017-06-22T09:40:11.912Z,15.10
2017-06-22T09:42:39.730Z,16.77
2017-06-22T09:45:11.383Z,15.20
2017-06-22T09:47:37.929Z,15.87
2017-06-22T09:50:07.102Z,14.40
2017-06-22T09:52:36.430Z,15.20
2017-06-22T09:55:04.443Z,14.13
2017-06-22T09:57:32.115Z,14.93
2017-06-22T09:59:59.811Z,15.30
2017-06-22T10:02:27.682Z,15.07
2017-06-22T10:04:56.755Z,15.53
2017-06-22T10:07:24.025Z,13.83
2017-06-22T10:09:51.120Z,15.10
2017-06-22T10:12:17.607Z,12.50
2017-06-22T10:14:44.487Z,13.43
2017-06-22T10:17:10.810Z,13.73
2017-06-22T10:19:38.081Z,14.33
2017-06-22T10:22:05.271Z,14.50
2017-06-22T10:24:34.739Z,13.47
2017-06-22T10:27:04.487Z,13.80
2017-06-22T10:29:32.783Z,13.93
2017-06-22T10:32:02.072Z,13.47
2017-06-22T10:34:31.001Z,13.73
2017-06-22T10:36:59.056Z,13.40
2017-06-22T10:39:27.352Z,12.33
2017-06-22T10:41:55.424Z,12.17
2017-06-22T10:44:25.512Z,12.87
2017-06-22T10:46:54.336Z,12.67
2017-06-22T10:49:22.498Z,13.13
2017-06-22T10:51:51.879Z,12.43
2017-06-22T10:54:18.163Z,13.10
2017-06-22T10:56:45.760Z,12.63
2017-06-22T10:59:13.067Z,13.17
2017-06-22T11:01:43.574Z,11.83
2017-06-22T11:04:11.491Z,11.33
2017-06-22T11:06:39.360Z,12.20
2017-06-22T11:09:06.952Z,13.10
2017-06-22T11:11:38.283Z,12.53
2017-06-22T11:14:07.608Z,12.80
2017-06-22T11:16:35.867Z,12.80
2017-06-22T11:19:03.014Z,12.40
2017-06-22T11:24:06.335Z,14.83
2017-06-22T11:26:38.442Z,14.23
2017-06-22T11:29:05.735Z,13.20
2017-06-22T11:31:36.185Z,14.63
2017-06-22T11:34:02.486Z,13.30
2017-06-22T11:36:29.955Z,12.43
2017-06-22T11:38:56.244Z,12.40
2017-06-22T11:41:22.647Z,11.30
2017-06-22T11:43:49.195Z,12.80
2017-06-22T11:46:15.543Z,11.77
2017-06-22T11:48:43.251Z,12.60
2017-06-22T11:51:11.169Z,12.07
2017-06-22T11:53:38.055Z,12.20
2017-06-22T11:56:05.580Z,11.90
2017-06-22T11:58:33.308Z,11.80
2017-06-22T12:01:00.413Z,11.73
2017-06-22T12:03:27.532Z,12.17
2017-06-22T12:05:56.596Z,12.40
2017-06-22T12:08:26.579Z,12.20
2017-06-22T12:10:54.109Z,12.50
2017-06-22T12:14:25.665Z,12.60
2017-06-22T12:16:55.976Z,12.10
2017-06-22T12:19:23.076Z,12.17
2017-06-22T12:21:50.649Z,12.00
2017-06-22T12:24:26.738Z,12.87
2017-06-22T12:26:57.163Z,13.33
2017-06-22T12:29:23.865Z,12.50
2017-06-22T12:31:52.621Z,11.43
2017-06-22T12:34:21.534Z,12.17
2017-06-22T12:36:48.740Z,12.13
2017-06-22T12:39:16.246Z,11.27
2017-06-22T12:41:44.190Z,13.10
2017-06-22T12:44:16.316Z,12.00
2017-06-22T12:46:45.276Z,13.40
2017-06-22T12:49:13.038Z,12.33
2017-06-22T12:51:46.115Z,12.27
2017-06-22T12:54:14.733Z,11.97
2017-06-22T12:56:43.717Z,12.40
2017-06-22T12:59:11.542Z,11.70
2017-06-22T13:01:40.574Z,12.60
2017-06-22T13:04:09.969Z,12.27
2017-06-22T13:06:42.165Z,12.40
2017-06-22T13:09:09.671Z,12.93
2017-06-22T13:11:40.074Z,11.10
2017-06-22T13:14:06.347Z,11.93
2017-06-22T13:16:34.333Z,12.30
2017-06-22T13:19:02.501Z,12.10
2017-06-22T13:21:28.785Z,12.73
2017-06-22T13:23:56.434Z,12.07
2017-06-22T13:26:25.744Z,11.87
2017-06-22T13:28:54.392Z,11.90
2017-06-22T13:31:22.935Z,12.27
2017-06-22T13:33:51.268Z,11.47
2017-06-22T13:38:51.848Z,12.27
2017-06-22T13:41:23.825Z,12.17
2017-06-22T13:43:52.185Z,11.33
2017-06-22T13:46:19.989Z,11.17
2017-06-22T13:48:47.282Z,11.20
2017-06-22T13:51:15.511Z,11.70
2017-06-22T13:53:44.184Z,13.00
2017-06-22T13:56:17.488Z,11.00
2017-06-22T13:58:45.587Z,12.37
2017-06-22T14:01:12.957Z,11.83
2017-06-22T14:03:39.237Z,11.07
2017-06-22T14:06:06.125Z,11.23
2017-06-22T14:08:33.335Z,13.60
2017-06-22T14:10:59.727Z,11.30
2017-06-22T14:13:28.624Z,11.70
2017-06-22T14:15:56.535Z,11.90
2017-06-22T14:18:25.629Z,12.03
2017-06-22T14:20:56.322Z,11.57
2017-06-22T14:23:23.577Z,13.17
2017-06-22T14:25:52.477Z,12.20
2017-06-22T14:28:20.580Z,11.90
2017-06-22T14:30:48.504Z,11.73
2017-06-22T14:33:16.583Z,11.97
2017-06-22T14:35:42.996Z,12.70
2017-06-22T14:38:10.897Z,13.20
2017-06-22T14:40:38.692Z,13.00
2017-06-22T14:43:05.562Z,12.77
2017-06-22T14:45:35.249Z,13.60
2017-06-22T14:48:04.290Z,12.33
2017-06-22T14:50:32.172Z,12.40
2017-06-22T14:53:00.477Z,13.13
2017-06-22T14:55:28.783Z,13.53
2017-06-22T14:57:55.792Z,12.77
2017-06-22T15:00:23.691Z,12.90
2017-06-22T15:02:50.573Z,12.27
2017-06-22T15:05:26.102Z,12.90
2017-06-22T15:07:52.563Z,11.87
2017-06-22T15:10:18.842Z,13.17
2017-06-22T15:12:46.281Z,12.50
2017-06-22T15:15:13.599Z,13.10
2017-06-22T15:17:45.434Z,12.43
2017-06-22T15:20:14.372Z,13.77
2017-06-22T15:22:44.362Z,13.17
2017-06-22T15:25:12.244Z,17.60
2017-06-22T15:27:39.187Z,12.57
2017-06-22T15:30:07.928Z,13.57
2017-06-22T15:32:36.937Z,13.73
2017-06-22T15:35:04.191Z,13.70
2017-06-22T15:37:33.037Z,12.23
2017-06-22T15:40:02.664Z,12.97
2017-06-22T15:42:28.929Z,13.70
2017-06-22T15:44:57.439Z,13.47
2017-06-22T15:47:25.838Z,13.17
2017-06-22T15:49:54.361Z,13.63
2017-06-22T15:52:24.101Z,14.30
2017-06-22T15:54:51.881Z,13.60
2017-06-22T15:57:20.213Z,14.30
2017-06-22T15:59:47.794Z,14.00
2017-06-22T16:02:14.092Z,13.80
2017-06-22T16:04:42.270Z,12.80
2017-06-22T16:07:08.566Z,13.90
2017-06-22T16:09:38.432Z,14.60
2017-06-22T16:12:05.597Z,12.90
2017-06-22T16:14:34.637Z,13.97
2017-06-22T16:17:02.380Z,14.87
2017-06-22T16:19:30.460Z,14.13
2017-06-22T16:21:56.735Z,14.37
2017-06-22T16:24:25.916Z,15.63
2017-06-22T16:26:53.307Z,15.37
2017-06-22T16:29:20.191Z,15.33
2017-06-22T16:31:49.097Z,14.43
2017-06-22T16:34:17.750Z,16.00
2017-06-22T16:36:46.580Z,17.70
2017-06-22T16:39:14.711Z,14.93
2017-06-22T16:41:41.750Z,15.63
2017-06-22T16:44:09.550Z,16.10
2017-06-22T16:46:37.003Z,16.30
2017-06-22T16:49:05.023Z,16.10
2017-06-22T16:51:33.118Z,16.17
2017-06-22T16:54:00.803Z,14.47
2017-06-22T16:56:29.358Z,16.00
2017-06-22T16:58:58.364Z,16.27
2017-06-22T17:01:27.623Z,15.87
2017-06-22T17:03:56.474Z,16.70
2017-06-22T17:06:25.539Z,17.23
2017-06-22T17:08:53.692Z,15.90
2017-06-22T17:11:22.793Z,16.80
2017-06-22T17:13:50.253Z,16.00
2017-06-22T17:16:18.346Z,15.00
2017-06-22T17:18:47.233Z,15.07
2017-06-22T17:21:15.916Z,15.10
2017-06-22T17:23:42.485Z,15.63
2017-06-22T17:26:11.858Z,16.20
2017-06-22T17:28:39.917Z,16.00
2017-06-22T17:31:06.672Z,18.63
2017-06-22T17:33:37.935Z,16.77
2017-06-22T17:36:06.072Z,15.83
2017-06-22T17:38:33.614Z,15.60
2017-06-22T17:41:02.169Z,14.60
2017-06-22T17:43:29.601Z,15.90
2017-06-22T17:45:58.880Z,15.73
2017-06-22T17:48:26.829Z,16.17
2017-06-22T17:50:54.075Z,17.67
2017-06-22T17:53:22.003Z,15.93
2017-06-22T17:55:48.636Z,17.47
2017-06-22T17:58:23.972Z,16.47
2017-06-22T18:00:52.792Z,23.07
2017-06-22T18:03:19.103Z,23.63
2017-06-22T18:05:45.398Z,21.63
2017-06-22T18:08:13.632Z,19.33
2017-06-22T18:10:44.173Z,19.00
2017-06-22T18:13:13.497Z,22.07
2017-06-22T18:15:43.452Z,21.80
2017-06-22T18:18:09.704Z,20.87
2017-06-22T18:20:37.685Z,20.80
2017-06-22T18:23:06.780Z,22.37
2017-06-22T18:25:36.619Z,23.10
2017-06-22T18:28:05.954Z,25.37
2017-06-22T18:30:35.092Z,23.97
2017-06-22T18:33:01.628Z,21.87
2017-06-22T18:35:29.751Z,22.27
2017-06-22T18:37:59.289Z,22.10
2017-06-22T18:40:27.432Z,23.63
2017-06-22T18:42:54.933Z,22.47
2017-06-22T18:45:22.298Z,23.20
2017-06-22T18:47:50.110Z,22.20
2017-06-22T18:50:18.887Z,20.73
2017-06-22T18:52:47.101Z,23.57
2017-06-22T18:55:16.341Z,23.30
2017-06-22T18:57:44.035Z,25.57
2017-06-22T19:00:13.634Z,25.33
2017-06-22T19:02:40.759Z,25.27
2017-06-22T19:05:10.630Z,25.90
2017-06-22T19:07:38.876Z,25.17
2017-06-22T19:10:08.476Z,25.70
2017-06-22T19:12:36.552Z,24.83
2017-06-22T19:15:02.920Z,24.87
2017-06-22T19:17:31.149Z,23.67
2017-06-22T19:19:59.518Z,24.27
2017-06-22T19:22:27.326Z,25.90
2017-06-22T19:24:56.798Z,24.67
2017-06-22T19:27:27.634Z,25.07
2017-06-22T19:29:53.947Z,25.17
2017-06-22T19:32:20.236Z,25.10
2017-06-22T19:34:46.787Z,25.70
2017-06-22T19:37:13.733Z,26.30
2017-06-22T19:39:41.523Z,26.73
2017-06-22T19:42:08.727Z,27.13
2017-06-22T19:44:34.987Z,25.10
2017-06-22T19:47:03.779Z,24.40
2017-06-22T19:49:31.140Z,28.47
2017-06-22T19:51:59.332Z,26.33
2017-06-22T19:54:27.398Z,25.70
2017-06-22T19:56:58.480Z,26.13
2017-06-22T19:59:24.827Z,26.40
2017-06-22T20:01:54.438Z,30.37
2017-06-22T20:04:21.803Z,27.97
2017-06-22T20:06:48.988Z,28.80
2017-06-22T20:09:15.298Z,28.90
2017-06-22T20:11:42.546Z,30.67
2017-06-22T20:14:09.789Z,28.27
2017-06-22T20:16:36.412Z,29.03
2017-06-22T20:19:03.387Z,28.60
2017-06-22T20:21:31.456Z,27.10
2017-06-22T20:23:59.347Z,27.87
2017-06-22T20:26:26.510Z,27.97
2017-06-22T20:28:56.547Z,30.07
2017-06-22T20:31:23.476Z,29.63
2017-06-22T20:33:53.701Z,29.23
2017-06-22T20:36:22.612Z,28.20
2017-06-22T20:38:51.912Z,30.30
2017-06-22T20:41:18.949Z,30.93
2017-06-22T20:43:45.670Z,27.03
2017-06-22T20:46:13.185Z,28.33
2017-06-22T20:48:40.383Z,27.27
2017-06-22T20:51:09.606Z,26.77
2017-06-22T20:53:36.723Z,26.70
2017-06-22T20:56:05.422Z,27.03
2017-06-22T20:58:32.423Z,26.43
2017-06-22T21:01:00.331Z,25.37
2017-06-22T21:03:28.821Z,28.20
2017-06-22T21:05:55.135Z,27.13
2017-06-22T21:08:24.821Z,28.07
2017-06-22T21:10:52.377Z,25.67
2017-06-22T21:13:23.571Z,29.63
2017-06-22T21:15:49.880Z,30.57
2017-06-22T21:18:16.164Z,27.37
2017-06-22T21:20:42.743Z,33.60
2017-06-22T21:23:10.828Z,33.97
2017-06-22T21:25:37.108Z,34.17
2017-06-22T21:28:05.220Z,31.97
2017-06-22T21:30:34.672Z,31.13
2017-06-22T21:33:03.210Z,31.17
2017-06-22T21:35:29.519Z,32.10
2017-06-22T21:37:57.492Z,33.60
2017-06-22T21:40:28.406Z,29.00
2017-06-22T21:42:54.938Z,27.03
2017-06-22T21:45:22.173Z,24.50
2017-06-22T21:47:51.109Z,25.40
2017-06-22T21:50:17.398Z,24.20
2017-06-22T21:52:45.988Z,24.10
2017-06-22T21:55:16.209Z,25.00
2017-06-22T21:57:43.534Z,23.30
2017-06-22T22:00:14.693Z,22.10
2017-06-22T22:02:42.972Z,22.33
2017-06-22T22:05:09.258Z,22.47
2017-06-22T22:07:35.581Z,20.73
2017-06-22T22:10:07.914Z,21.80
2017-06-22T22:12:36.761Z,20.83
2017-06-22T22:15:10.987Z,21.40
2017-06-22T22:17:39.002Z,21.77
2017-06-22T22:20:08.081Z,24.07
2017-06-22T22:22:40.119Z,23.60
2017-06-22T22:25:11.488Z,28.00
2017-06-22T22:27:39.531Z,27.60
2017-06-22T22:30:09.197Z,27.20
2017-06-22T22:32:37.273Z,27.73
2017-06-22T22:35:05.477Z,26.60
2017-06-22T22:37:33.546Z,25.07
2017-06-22T22:40:00.746Z,23.07
2017-06-22T22:42:31.251Z,24.43
2017-06-22T22:45:03.597Z,20.63
2017-06-22T22:47:31.203Z,21.47
2017-06-22T22:50:02.513Z,22.97
2017-06-22T22:52:34.289Z,24.13
2017-06-22T22:55:05.292Z,23.03
2017-06-22T22:57:33.512Z,22.37
2017-06-22T23:00:00.034Z,22.90
2017-06-22T23:02:27.788Z,22.90
2017-06-22T23:04:55.939Z,22.03
2017-06-22T23:07:22.859Z,21.90
2017-06-22T23:09:51.892Z,24.03
2017-06-22T23:12:21.459Z,22.40
2017-06-22T23:14:51.851Z,37.83
2017-06-22T23:17:19.888Z,49.70
2017-06-22T23:19:47.196Z,57.63
2017-06-22T23:22:14.196Z,85.60
2017-06-22T23:24:42.336Z,106.60
2017-06-22T23:27:09.668Z,122.13
2017-06-22T23:29:38.756Z,123.30
2017-06-22T23:32:06.373Z,77.07
2017-06-22T23:34:32.925Z,39.77
2017-06-22T23:36:59.217Z,24.00
2017-06-22T23:39:26.391Z,21.83
2017-06-22T23:41:52.942Z,21.47
2017-06-22T23:44:22.730Z,19.77
2017-06-22T23:46:50.488Z,19.53
2017-06-22T23:49:21.278Z,20.27
2017-06-22T23:51:48.070Z,19.90
2017-06-22T23:54:14.958Z,20.10
2017-06-22T23:56:42.298Z,21.20
2017-06-22T23:59:10.628Z,20.37
